الصفحة الرئيسية
METAR-TAF:

METAR-TAF

مطار :

Aupaluk, كيبك, كندا

دائرة عرض: 59-17-48N, خط طول: 069-35-59W, ارتفاع: 35 متر

مراقبة الطقس الحالي

تاريخ ووقت الإصدار 45 دقيقة قبل الساعة 16:00UTC
ريح 20 عقدة من الغرب تتزايد حتى 28 عقدة
درجة الحرارة 3°درجة مئوية
الرطوبة 93%
ضغط 1001 hPa
الرؤية: 19.3 كم
غيوم مفككة على ارتفاع 1200 قدم
ملبد بالغيوم على ارتفاع 3500 قدم
مطر خفيف

METAR: CYLA 151600Z 28020G28KT 12SM -RA BKN012 OVC035 03/02 A2957 RMK SC5SC3 SLP018

زمن: 12:45 (16:45 UTC)


TAF: مفقودة

أرصاد الطقس والتوقعات من أكثر من 4000 مطار (تقارير الطقس للمطار METAR والتنبؤ بالطقس بالمطارTAF).

المحطات المتاحة هي النقط الصفراء والحمراء على الخريطة.

حرك المؤشر فوق النقطة لمعرفة اسم المحطة.

ثم انقر لمعرفة أرصاد وتوقعات الطقس.

لتغيير الخارطة: اضغط على الأزرار الخضراء مع رمز الصليب الأسود للتكبير. على الزر الأخضر مع شرطة للتصغير، أو على الأسهم الخضراء للخرائط المجاورة.


METAR-TAF: